createdAt,value
2018-04-15T00:00:13.709Z,28.70
2018-04-15T00:02:45.480Z,24.40
2018-04-15T00:05:13.209Z,27.30
2018-04-15T00:07:43.761Z,27.30
2018-04-15T00:10:11.840Z,29.90
2018-04-15T00:12:53.548Z,30.60
2018-04-15T00:15:22.665Z,27.03
2018-04-15T00:17:51.700Z,29.93
2018-04-15T00:20:20.751Z,30.13
2018-04-15T00:22:49.429Z,28.83
2018-04-15T00:25:18.475Z,31.23
2018-04-15T00:28:08.383Z,31.03
2018-04-15T00:30:36.081Z,31.07
2018-04-15T00:33:18.530Z,31.00
2018-04-15T00:35:46.622Z,30.60
2018-04-15T00:38:15.405Z,31.83
2018-04-15T00:40:44.244Z,33.33
2018-04-15T00:43:12.949Z,35.87
2018-04-15T00:45:42.157Z,34.67
2018-04-15T00:48:19.509Z,33.03
2018-04-15T00:50:47.279Z,32.97
2018-04-15T00:53:16.489Z,33.47
2018-04-15T00:55:44.552Z,33.97
2018-04-15T00:58:13.384Z,40.13
2018-04-15T01:00:41.830Z,37.97
2018-04-15T01:03:11.361Z,35.03
2018-04-15T01:05:39.767Z,37.53
2018-04-15T01:08:20.959Z,37.60
2018-04-15T01:10:51.118Z,37.10
2018-04-15T01:13:26.768Z,40.53
2018-04-15T01:15:55.253Z,38.43
2018-04-15T01:21:22.689Z,42.63
2018-04-15T01:23:50.429Z,41.73
2018-04-15T01:26:21.730Z,42.93
2018-04-15T01:28:50.221Z,43.67
2018-04-15T01:31:21.871Z,42.33
2018-04-15T01:33:51.271Z,44.17
2018-04-15T01:36:19.776Z,45.63
2018-04-15T01:38:48.193Z,45.77
2018-04-15T01:41:19.761Z,42.67
2018-04-15T01:43:47.864Z,44.47
2018-04-15T01:46:15.648Z,44.70
2018-04-15T01:48:44.139Z,45.10
2018-04-15T01:51:14.239Z,46.50
2018-04-15T01:53:42.689Z,46.03
2018-04-15T01:56:12.503Z,44.50
2018-04-15T01:58:41.385Z,46.37
2018-04-15T02:01:11.838Z,47.77
2018-04-15T02:03:40.840Z,44.07
2018-04-15T02:06:09.484Z,45.33
2018-04-15T02:08:37.221Z,46.73
2018-04-15T02:11:15.540Z,44.17
2018-04-15T02:13:44.045Z,48.23
2018-04-15T02:16:17.377Z,46.57
2018-04-15T02:18:45.597Z,45.27
2018-04-15T02:21:19.052Z,46.37
2018-04-15T02:23:46.882Z,47.83
2018-04-15T02:26:17.108Z,45.83
2018-04-15T02:28:45.583Z,43.40
2018-04-15T02:31:15.243Z,42.60
2018-04-15T02:33:44.116Z,45.20
2018-04-15T02:36:12.283Z,46.93
2018-04-15T02:38:41.142Z,48.13
2018-04-15T02:41:10.650Z,43.73
2018-04-15T02:43:38.323Z,44.57
2018-04-15T02:46:08.741Z,42.17
2018-04-15T02:48:36.458Z,46.43
2018-04-15T02:51:07.182Z,45.47
2018-04-15T02:53:36.544Z,44.40
2018-04-15T02:56:05.010Z,46.03
2018-04-15T02:58:32.674Z,43.00
2018-04-15T03:01:03.601Z,47.50
2018-04-15T03:03:32.791Z,46.30
2018-04-15T03:06:02.213Z,44.93
2018-04-15T03:08:30.324Z,39.53
2018-04-15T03:10:59.120Z,45.53
2018-04-15T03:13:27.796Z,44.03
2018-04-15T03:15:59.496Z,44.93
2018-04-15T03:18:27.799Z,43.77
2018-04-15T03:20:57.330Z,41.03
2018-04-15T03:23:26.350Z,44.70
2018-04-15T03:25:55.084Z,42.60
2018-04-15T03:28:23.526Z,43.27
2018-04-15T03:31:02.433Z,44.80
2018-04-15T03:33:30.150Z,45.33
2018-04-15T03:36:13.432Z,44.27
2018-04-15T03:38:41.918Z,42.00
2018-04-15T03:41:29.506Z,44.57
2018-04-15T03:43:57.812Z,40.60
2018-04-15T03:46:33.019Z,43.23
2018-04-15T03:49:01.486Z,43.50
2018-04-15T03:51:29.944Z,39.07
2018-04-15T03:53:57.719Z,41.00
2018-04-15T03:56:25.483Z,41.50
2018-04-15T03:58:53.187Z,39.73
2018-04-15T04:01:20.923Z,42.17
2018-04-15T04:03:49.430Z,42.00
2018-04-15T04:06:19.985Z,39.47
2018-04-15T04:08:47.765Z,39.37
2018-04-15T04:11:31.504Z,40.93
2018-04-15T04:14:00.129Z,39.23
2018-04-15T04:16:28.254Z,43.80
2018-04-15T04:19:08.854Z,41.40
2018-04-15T04:21:55.048Z,40.40
2018-04-15T04:24:34.592Z,40.40
2018-04-15T04:27:03.146Z,36.57
2018-04-15T04:29:39.686Z,40.20
2018-04-15T04:32:09.035Z,40.67
2018-04-15T04:34:41.430Z,35.23
2018-04-15T04:37:09.926Z,40.20
2018-04-15T04:39:38.731Z,38.80
2018-04-15T04:42:06.450Z,42.37
2018-04-15T04:44:35.964Z,41.07
2018-04-15T04:47:04.892Z,41.33
2018-04-15T04:49:53.696Z,42.63
2018-04-15T04:52:22.015Z,42.50
2018-04-15T04:55:13.014Z,39.60
2018-04-15T04:57:40.797Z,38.63
2018-04-15T05:00:09.545Z,40.57
2018-04-15T05:02:37.968Z,45.20
2018-04-15T05:05:11.404Z,42.57
2018-04-15T05:07:40.562Z,43.63
2018-04-15T05:10:20.003Z,38.90
2018-04-15T05:12:47.743Z,43.83
2018-04-15T05:15:29.830Z,44.53
2018-04-15T05:17:58.249Z,43.27
2018-04-15T05:20:31.752Z,46.80
2018-04-15T05:23:00.195Z,41.07
2018-04-15T05:25:30.719Z,45.70
2018-04-15T05:27:58.473Z,38.83
2018-04-15T05:30:34.830Z,48.40
2018-04-15T05:33:03.834Z,46.70
2018-04-15T05:35:50.355Z,42.77
2018-04-15T05:38:18.210Z,36.37
2018-04-15T05:40:55.341Z,39.60
2018-04-15T05:43:23.456Z,47.63
2018-04-15T05:45:51.943Z,44.07
2018-04-15T05:48:20.426Z,44.40
2018-04-15T05:50:50.918Z,44.57
2018-04-15T05:53:19.210Z,44.03
2018-04-15T05:55:47.918Z,51.30
2018-04-15T05:58:16.359Z,56.57
2018-04-15T06:00:45.238Z,53.50
2018-04-15T06:03:13.724Z,43.70
2018-04-15T06:05:42.475Z,43.83
2018-04-15T06:08:11.078Z,43.43
2018-04-15T06:10:58.202Z,47.70
2018-04-15T06:13:26.655Z,41.80
2018-04-15T06:16:00.925Z,44.53
2018-04-15T06:18:29.792Z,40.37
2018-04-15T06:20:59.506Z,46.17
2018-04-15T06:23:27.162Z,45.33
2018-04-15T06:25:56.908Z,45.20
2018-04-15T06:28:25.034Z,42.80
2018-04-15T06:30:52.757Z,47.40
2018-04-15T06:33:21.234Z,42.47
2018-04-15T06:35:51.838Z,45.20
2018-04-15T06:38:19.935Z,43.37
2018-04-15T06:40:56.609Z,47.03
2018-04-15T06:43:25.090Z,43.13
2018-04-15T06:45:57.593Z,46.37
2018-04-15T06:48:25.325Z,41.67
2018-04-15T06:50:54.868Z,47.63
2018-04-15T06:53:23.336Z,45.43
2018-04-15T06:58:46.760Z,48.37
2018-04-15T07:01:16.069Z,47.90
2018-04-15T07:03:44.762Z,50.30
2018-04-15T07:06:13.956Z,41.20
2018-04-15T07:08:42.691Z,45.67
2018-04-15T07:11:11.590Z,42.40
2018-04-15T07:13:40.321Z,47.23
2018-04-15T07:16:07.991Z,45.37
2018-04-15T07:18:47.470Z,47.07
2018-04-15T07:21:15.194Z,49.80
2018-04-15T07:23:54.006Z,51.13
2018-04-15T07:26:23.153Z,46.27
2018-04-15T07:28:58.490Z,38.47
2018-04-15T07:31:26.592Z,46.37
2018-04-15T07:33:56.992Z,52.93
2018-04-15T07:36:25.929Z,59.23
2018-04-15T07:38:55.732Z,52.03
2018-04-15T07:41:23.535Z,53.83
2018-04-15T07:43:59.896Z,51.00
2018-04-15T07:46:28.413Z,48.70
2018-04-15T07:49:04.812Z,50.00
2018-04-15T07:51:32.558Z,54.80
2018-04-15T07:56:48.700Z,51.20
2018-04-15T07:59:16.750Z,48.50
2018-04-15T08:01:46.119Z,44.70
2018-04-15T08:04:13.828Z,42.77
2018-04-15T08:06:45.722Z,48.50
2018-04-15T08:09:13.404Z,46.53
2018-04-15T08:11:42.358Z,44.90
2018-04-15T08:14:10.455Z,50.27
2018-04-15T08:16:39.234Z,49.27
2018-04-15T08:19:07.723Z,51.30
2018-04-15T08:21:36.382Z,47.53
2018-04-15T08:24:04.103Z,49.90
2018-04-15T08:26:33.874Z,47.93
2018-04-15T08:29:02.373Z,52.03
2018-04-15T08:31:48.598Z,43.60
2018-04-15T08:34:17.088Z,50.17
2018-04-15T08:36:45.625Z,48.10
2018-04-15T08:39:14.724Z,46.63
2018-04-15T08:41:49.746Z,50.73
2018-04-15T08:44:18.216Z,49.53
2018-04-15T08:46:47.973Z,49.37
2018-04-15T08:49:16.422Z,48.27
2018-04-15T08:51:44.189Z,50.30
2018-04-15T08:54:11.916Z,45.53
2018-04-15T08:56:41.053Z,45.17
2018-04-15T08:59:08.791Z,47.57
2018-04-15T09:01:37.913Z,45.90
2018-04-15T09:04:05.651Z,43.47
2018-04-15T09:06:35.181Z,41.60
2018-04-15T09:09:03.814Z,41.67
2018-04-15T09:11:41.792Z,42.53
2018-04-15T09:14:09.545Z,40.40
2018-04-15T09:16:38.346Z,41.50
2018-04-15T09:19:06.032Z,43.23
2018-04-15T09:21:35.192Z,42.17
2018-04-15T09:24:03.683Z,39.80
2018-04-15T09:26:31.537Z,40.37
2018-04-15T09:29:00.048Z,43.77
2018-04-15T09:31:33.059Z,37.53
2018-04-15T09:34:01.915Z,38.47
2018-04-15T09:36:30.347Z,40.13
2018-04-15T09:38:58.761Z,38.53
2018-04-15T09:41:27.916Z,36.13
2018-04-15T09:43:56.978Z,36.00
2018-04-15T09:46:35.488Z,39.00
2018-04-15T09:49:04.045Z,34.77
2018-04-15T09:51:33.765Z,35.23
2018-04-15T09:54:01.499Z,36.10
2018-04-15T09:56:30.300Z,34.53
2018-04-15T09:58:57.985Z,34.90
2018-04-15T10:01:34.283Z,35.60
2018-04-15T10:04:02.384Z,35.40
2018-04-15T10:06:34.862Z,32.73
2018-04-15T10:09:02.618Z,31.47
2018-04-15T10:11:31.296Z,32.50
2018-04-15T10:13:59.804Z,33.60
2018-04-15T10:16:27.923Z,35.83
2018-04-15T10:18:55.670Z,32.80
2018-04-15T10:21:25.440Z,32.93
2018-04-15T10:23:53.136Z,33.17
2018-04-15T10:26:24.433Z,31.60
2018-04-15T10:28:52.170Z,31.53
2018-04-15T10:31:22.406Z,31.23
2018-04-15T10:33:50.830Z,33.07
2018-04-15T10:36:19.354Z,29.63
2018-04-15T10:38:47.098Z,34.17
2018-04-15T10:41:15.631Z,31.37
2018-04-15T10:43:44.073Z,32.60
2018-04-15T10:46:19.196Z,30.53
2018-04-15T10:48:46.937Z,32.97
2018-04-15T10:51:16.653Z,32.87
2018-04-15T10:53:44.384Z,32.60
2018-04-15T10:56:13.956Z,32.43
2018-04-15T10:58:42.893Z,29.53
2018-04-15T11:01:11.060Z,31.20
2018-04-15T11:03:38.760Z,28.50
2018-04-15T11:06:13.771Z,30.87
2018-04-15T11:08:42.701Z,26.83
2018-04-15T11:11:10.445Z,31.83
2018-04-15T11:13:38.942Z,26.63
2018-04-15T11:16:06.705Z,24.10
2018-04-15T11:18:34.426Z,23.63
2018-04-15T11:21:10.392Z,22.77
2018-04-15T11:23:38.050Z,22.30
2018-04-15T11:26:07.149Z,20.47
2018-04-15T11:28:34.868Z,18.00
2018-04-15T11:31:07.443Z,19.30
2018-04-15T11:33:35.151Z,19.10
2018-04-15T11:36:03.915Z,22.53
2018-04-15T11:38:32.409Z,20.37
2018-04-15T11:41:05.833Z,20.23
2018-04-15T11:43:33.637Z,21.27
2018-04-15T11:46:04.011Z,20.10
2018-04-15T11:48:32.069Z,18.07
2018-04-15T11:50:59.833Z,19.83
2018-04-15T11:53:27.603Z,18.50
2018-04-15T11:55:58.815Z,18.20
2018-04-15T11:58:27.499Z,15.63
2018-04-15T12:00:55.984Z,18.10
2018-04-15T12:03:25.199Z,17.53
2018-04-15T12:05:52.876Z,15.40
2018-04-15T12:08:20.590Z,16.33
2018-04-15T12:10:49.323Z,15.90
2018-04-15T12:13:17.078Z,15.30
2018-04-15T12:15:44.848Z,14.50
2018-04-15T12:18:12.955Z,14.00
2018-04-15T12:20:49.264Z,13.50
2018-04-15T12:23:17.689Z,14.50
2018-04-15T12:25:48.968Z,13.37
2018-04-15T12:28:16.690Z,13.67
2018-04-15T12:30:45.424Z,14.67
2018-04-15T12:33:13.103Z,13.33
2018-04-15T12:35:41.249Z,13.77
2018-04-15T12:38:08.976Z,11.97
2018-04-15T12:40:38.092Z,13.40
2018-04-15T12:43:08.539Z,13.20
2018-04-15T12:45:39.391Z,13.47
2018-04-15T12:48:07.865Z,14.30
2018-04-15T12:50:37.646Z,12.30
2018-04-15T12:53:05.424Z,12.07
2018-04-15T12:55:39.768Z,11.77
2018-04-15T12:58:07.837Z,10.17
2018-04-15T13:00:38.485Z,11.70
2018-04-15T13:03:06.197Z,12.57
2018-04-15T13:05:38.006Z,11.60
2018-04-15T13:08:05.746Z,12.60
2018-04-15T13:10:36.421Z,10.97
2018-04-15T13:13:04.926Z,10.47
2018-04-15T13:15:40.202Z,9.80
2018-04-15T13:18:09.220Z,10.90
2018-04-15T13:20:39.986Z,11.90
2018-04-15T13:23:07.685Z,11.20
2018-04-15T13:25:39.916Z,11.37
2018-04-15T13:28:07.654Z,10.30
2018-04-15T13:30:41.665Z,10.97
2018-04-15T13:33:10.950Z,10.83
2018-04-15T13:35:42.196Z,12.83
2018-04-15T13:38:10.351Z,11.97
2018-04-15T13:40:44.229Z,12.80
2018-04-15T13:43:12.377Z,12.83
2018-04-15T13:45:44.070Z,13.20
2018-04-15T13:48:11.888Z,13.33
2018-04-15T13:50:44.007Z,12.47
2018-04-15T13:53:11.724Z,13.10
2018-04-15T13:55:40.481Z,13.73
2018-04-15T13:58:09.743Z,13.23
2018-04-15T14:00:37.405Z,12.53
2018-04-15T14:03:05.143Z,13.00
2018-04-15T14:05:34.819Z,14.40
2018-04-15T14:08:02.991Z,13.57
2018-04-15T14:10:37.871Z,14.43
2018-04-15T14:13:05.671Z,13.53
2018-04-15T14:15:39.688Z,13.87
2018-04-15T14:18:08.337Z,13.87
2018-04-15T14:20:37.068Z,13.33
2018-04-15T14:23:05.554Z,12.50
2018-04-15T14:25:33.314Z,13.87
2018-04-15T14:28:01.387Z,13.93
2018-04-15T14:30:43.300Z,12.40
2018-04-15T14:33:11.437Z,11.80
2018-04-15T14:35:40.589Z,10.53
2018-04-15T14:38:09.105Z,10.00
2018-04-15T14:40:36.822Z,9.77
2018-04-15T14:43:05.317Z,11.37
2018-04-15T14:45:36.215Z,13.10
2018-04-15T14:48:03.928Z,13.70
2018-04-15T14:50:33.039Z,13.63
2018-04-15T14:53:00.814Z,14.20
2018-04-15T14:55:29.753Z,13.97
2018-04-15T14:57:57.900Z,14.30
2018-04-15T15:03:24.517Z,13.53
2018-04-15T15:05:52.279Z,13.03
2018-04-15T15:08:32.077Z,13.50
2018-04-15T15:10:59.842Z,13.13
2018-04-15T15:13:27.582Z,13.50
2018-04-15T15:15:56.525Z,14.97
2018-04-15T15:18:29.264Z,12.87
2018-04-15T15:20:58.170Z,12.37
2018-04-15T15:23:30.321Z,11.70
2018-04-15T15:25:59.677Z,10.63
2018-04-15T15:28:34.937Z,12.87
2018-04-15T15:31:03.523Z,11.90
2018-04-15T15:33:33.296Z,11.83
2018-04-15T15:36:02.532Z,11.97
2018-04-15T15:38:33.668Z,13.23
2018-04-15T15:41:02.953Z,13.57
2018-04-15T15:43:31.485Z,13.00
2018-04-15T15:45:59.591Z,13.50
2018-04-15T15:48:31.595Z,13.37
2018-04-15T15:51:00.473Z,12.23
2018-04-15T15:53:29.248Z,12.83
2018-04-15T15:55:58.496Z,11.50
2018-04-15T15:58:29.079Z,11.80
2018-04-15T16:00:56.789Z,9.50
2018-04-15T16:03:26.500Z,10.50
2018-04-15T16:05:55.637Z,11.90
2018-04-15T16:08:24.497Z,9.47
2018-04-15T16:10:52.218Z,9.93
2018-04-15T16:13:24.154Z,10.57
2018-04-15T16:15:51.817Z,10.87
2018-04-15T16:18:19.940Z,11.00
2018-04-15T16:20:47.731Z,10.37
2018-04-15T16:23:16.604Z,10.17
2018-04-15T16:25:44.343Z,10.97
2018-04-15T16:28:15.630Z,10.07
2018-04-15T16:30:43.858Z,11.20
2018-04-15T16:33:15.740Z,10.73
2018-04-15T16:35:43.498Z,11.17
2018-04-15T16:38:25.403Z,12.13
2018-04-15T16:40:53.087Z,10.70
2018-04-15T16:43:25.375Z,12.20
2018-04-15T16:45:53.057Z,11.10
2018-04-15T16:48:22.234Z,11.20
2018-04-15T16:50:51.133Z,13.07
2018-04-15T16:53:26.912Z,19.67
2018-04-15T16:55:54.696Z,14.73
2018-04-15T16:58:30.500Z,11.73
2018-04-15T17:00:58.232Z,12.57
2018-04-15T17:03:25.988Z,13.73
2018-04-15T17:05:54.150Z,12.50
2018-04-15T17:08:21.899Z,23.53
2018-04-15T17:10:50.957Z,20.10
2018-04-15T17:13:18.707Z,14.03
2018-04-15T17:15:46.588Z,15.87
2018-04-15T17:24:09.084Z,16.57
2018-04-15T17:26:38.327Z,15.93
2018-04-15T17:29:20.915Z,17.20
2018-04-15T17:31:49.077Z,14.60
2018-04-15T17:34:18.773Z,15.37
2018-04-15T17:36:47.389Z,14.90
2018-04-15T17:39:16.886Z,17.90
2018-04-15T17:41:45.390Z,17.00
2018-04-15T17:44:17.764Z,17.13
2018-04-15T17:46:45.512Z,18.43
2018-04-15T17:49:17.948Z,17.63
2018-04-15T17:51:45.657Z,16.53
2018-04-15T17:54:15.129Z,17.80
2018-04-15T17:56:43.979Z,18.57
2018-04-15T17:59:11.724Z,16.90
2018-04-15T18:01:39.827Z,18.33
2018-04-15T18:04:13.735Z,17.03
2018-04-15T18:06:41.830Z,16.93
2018-04-15T18:09:09.557Z,18.83
2018-04-15T18:11:38.803Z,16.40
2018-04-15T18:14:10.290Z,19.83
2018-04-15T18:16:38.060Z,19.50
2018-04-15T18:19:07.053Z,18.30
2018-04-15T18:21:35.930Z,19.43
2018-04-15T18:24:03.599Z,18.13
2018-04-15T18:26:31.315Z,18.83
2018-04-15T18:29:00.049Z,20.33
2018-04-15T18:31:27.764Z,20.87
2018-04-15T18:34:01.280Z,21.60
2018-04-15T18:36:29.785Z,20.87
2018-04-15T18:38:58.560Z,20.13
2018-04-15T18:41:26.435Z,19.47
2018-04-15T18:43:54.124Z,22.07
2018-04-15T18:46:22.244Z,18.77
2018-04-15T18:49:06.744Z,20.93
2018-04-15T18:51:34.585Z,20.47
2018-04-15T18:54:06.915Z,21.30
2018-04-15T18:56:34.657Z,21.20
2018-04-15T18:59:07.306Z,23.00
2018-04-15T19:01:35.372Z,22.27
2018-04-15T19:04:03.158Z,23.93
2018-04-15T19:06:30.886Z,21.70
2018-04-15T19:09:00.392Z,19.97
2018-04-15T19:11:28.487Z,19.77
2018-04-15T19:14:00.878Z,20.83
2018-04-15T19:16:29.739Z,17.67
2018-04-15T19:18:57.545Z,19.67
2018-04-15T19:21:25.283Z,21.00
2018-04-15T19:23:54.205Z,24.17
2018-04-15T19:26:21.959Z,22.23
2018-04-15T19:28:50.466Z,23.17
2018-04-15T19:31:26.679Z,25.27
2018-04-15T19:33:54.864Z,23.67
2018-04-15T19:36:27.321Z,21.50
2018-04-15T19:38:55.135Z,23.53
2018-04-15T19:41:27.877Z,24.33
2018-04-15T19:43:55.745Z,26.77
2018-04-15T19:46:39.005Z,27.60
2018-04-15T19:49:07.262Z,25.47
2018-04-15T19:51:36.949Z,23.60
2018-04-15T19:54:04.681Z,24.73
2018-04-15T19:56:43.969Z,23.40
2018-04-15T19:59:11.631Z,23.57
2018-04-15T20:01:42.444Z,26.47
2018-04-15T20:04:10.236Z,25.67
2018-04-15T20:06:43.164Z,24.77
2018-04-15T20:09:11.278Z,22.67
2018-04-15T20:11:42.390Z,22.53
2018-04-15T20:14:10.093Z,23.23
2018-04-15T20:16:38.655Z,23.27
2018-04-15T20:19:07.185Z,22.93
2018-04-15T20:21:48.920Z,20.03
2018-04-15T20:24:17.055Z,28.00
2018-04-15T20:26:46.672Z,28.53
2018-04-15T20:29:15.350Z,29.03
2018-04-15T20:31:44.759Z,26.60
2018-04-15T20:34:12.846Z,28.30
2018-04-15T20:36:43.435Z,27.57
2018-04-15T20:39:11.520Z,29.00
2018-04-15T20:41:59.811Z,24.17
2018-04-15T20:44:28.616Z,26.70
2018-04-15T20:46:58.432Z,31.97
2018-04-15T20:49:26.158Z,33.50
2018-04-15T20:51:57.720Z,33.57
2018-04-15T20:54:25.532Z,30.40
2018-04-15T20:56:54.979Z,28.90
2018-04-15T20:59:23.102Z,30.30
2018-04-15T21:02:01.926Z,30.97
2018-04-15T21:04:29.658Z,31.10
2018-04-15T21:07:01.342Z,32.73
2018-04-15T21:09:29.489Z,25.83
2018-04-15T21:11:57.195Z,28.20
2018-04-15T21:14:25.717Z,28.17
2018-04-15T21:17:10.862Z,25.43
2018-04-15T21:19:38.593Z,25.33
2018-04-15T21:22:07.887Z,29.40
2018-04-15T21:24:35.595Z,29.60
2018-04-15T21:27:03.740Z,26.07
2018-04-15T21:29:31.877Z,28.23
2018-04-15T21:31:59.654Z,24.40
2018-04-15T21:34:27.298Z,25.13
2018-04-15T21:36:55.382Z,25.03
2018-04-15T21:39:23.101Z,28.13
2018-04-15T21:41:51.264Z,25.17
2018-04-15T21:44:19.433Z,26.83
2018-04-15T21:46:47.120Z,26.10
2018-04-15T21:49:15.566Z,25.43
2018-04-15T21:52:06.703Z,28.33
2018-04-15T21:54:35.217Z,27.57
2018-04-15T21:57:11.921Z,28.53
2018-04-15T21:59:40.037Z,31.80
2018-04-15T22:02:09.751Z,30.93
2018-04-15T22:04:38.858Z,32.57
2018-04-15T22:07:12.377Z,31.97
2018-04-15T22:09:40.455Z,29.30
2018-04-15T22:12:14.445Z,30.67
2018-04-15T22:14:42.650Z,29.87
2018-04-15T22:17:12.384Z,28.83
2018-04-15T22:19:40.876Z,29.73
2018-04-15T22:22:14.885Z,28.23
2018-04-15T22:24:43.872Z,30.57
2018-04-15T22:27:16.809Z,34.47
2018-04-15T22:29:44.461Z,31.97
2018-04-15T22:32:16.312Z,31.77
2018-04-15T22:34:44.013Z,33.87
2018-04-15T22:37:13.308Z,31.87
2018-04-15T22:39:41.384Z,30.10
2018-04-15T22:45:10.227Z,31.47
2018-04-15T22:47:44.384Z,35.33
2018-04-15T22:50:18.035Z,32.67
2018-04-15T22:52:53.663Z,26.93
2018-04-15T22:55:23.093Z,28.67
2018-04-15T22:57:50.782Z,32.30
2018-04-15T23:00:22.760Z,29.73
2018-04-15T23:02:50.485Z,31.53
2018-04-15T23:05:21.120Z,28.07
2018-04-15T23:07:49.581Z,31.57
2018-04-15T23:10:22.493Z,29.57
2018-04-15T23:12:50.981Z,31.10
2018-04-15T23:15:19.710Z,30.00
2018-04-15T23:17:47.470Z,30.10
2018-04-15T23:20:17.615Z,35.60
2018-04-15T23:22:45.750Z,33.93
2018-04-15T23:25:20.179Z,31.47
2018-04-15T23:27:48.392Z,33.80
2018-04-15T23:30:29.497Z,33.97
2018-04-15T23:32:57.619Z,32.80
2018-04-15T23:35:30.362Z,29.83
2018-04-15T23:37:58.906Z,29.73
2018-04-15T23:40:31.785Z,30.87
2018-04-15T23:43:00.376Z,28.07
2018-04-15T23:45:36.493Z,32.33
2018-04-15T23:48:04.211Z,26.90
2018-04-15T23:50:32.974Z,27.03
2018-04-15T23:53:00.637Z,29.23
2018-04-15T23:55:28.333Z,26.40
2018-04-15T23:57:56.138Z,28.73
